Terminal Aerodrome Forecast
Issued by NWS Omaha/Valley, NE

Home | Current Version | Previous Version | Graphics & Text | Print | Product List | Glossary On
Versions: 1 2 3 4 5 6 7 8 9 10 11 12 13 14 15 16 17 18 19 20 21 22 23 24 25 26 27 28 29 30 31 32 33 34 35 36 37 38 39
000
FTUS43 KOAX 270520
TAFOFK
TAF
KOFK 270520Z 2706/2806 13009KT P6SM OVC150
      TEMPO 2707/2709 6SM -SHRA OVC090
     FM270900 12005KT 6SM -SHRA OVC090
     FM271200 08004KT 4SM BR OVC025
     FM271700 05007KT P6SM BKN050 PROB30 2718/2724 P6SM TS BKN040CB
     FM280000 08004KT P6SM OVC100 PROB30 2800/2803 P6SM TS BKN040CB=

USA.gov is the U.S. government's official web portal to all federal, state and local government web resources and services.